Ocean Protector — VHDM — position and weather

sailwx.info

Track history (hours):
 
Tides and Currents Weather Stations Pressure Air Temp Water Temp Dewpoint Dewpoint Depression Visibility Wind Speed Wind Dir Waves Ship Positions

Ocean Protector

Last reported at 2014-Dec-24 00:17 UTC. Time now 2016-Dec-02 18:04 UTC.
Position N 01°23' E 104°02'.
Warning: this ship's position is years out of date!

Length 106 m; draft 5.5 m.

Type: Other ship. MMSI: 503630000.

Date/timePositionNaut miles runAvg speedWind from/ knotsBaromVisibWave heightAir tempDewpointWater temp
2014-Dec-24 00:17N 01°23' E 104°02'6 7.3
2014-Dec-23 23:28N 01°17' E 104°04'9 9.8
2014-Dec-23 22:33N 01°16' E 103°55'2 1.8
2014-Dec-23 21:26N 01°16' E 103°53'0 0.0
2014-Dec-23 20:20N 01°16' E 103°53'0 0.0
2014-Dec-23 18:31N 01°16' E 103°53'0 0.0
2014-Dec-23 17:31N 01°16' E 103°53'0 0.0
2014-Dec-23 16:33N 01°16' E 103°53'0 0.0
2014-Dec-23 15:31N 01°16' E 103°53'0 0.0
2014-Dec-23 14:30N 01°16' E 103°53'0 0.0
2014-Dec-23 13:31N 01°16' E 103°53'0 0.0
2014-Dec-23 12:32N 01°16' E 103°53'0 0.0
2014-Dec-23 11:31N 01°16' E 103°53'0 0.1
2014-Dec-23 10:32N 01°16' E 103°53'0 0.0
2014-Dec-23 09:32N 01°16' E 103°53'0 0.0
2014-Dec-23 08:31N 01°16' E 103°53'0 0.0
2014-Dec-23 07:33N 01°16' E 103°53'0 0.0
2014-Dec-23 06:33N 01°16' E 103°53'0 0.1
2014-Dec-23 05:29N 01°16' E 103°53'2 2.5
2014-Dec-23 04:33N 01°14' E 103°54'5 3.9
2014-Dec-23 03:20N 01°13' E 103°49'0 0.0
2014-Dec-23 02:27N 01°13' E 103°49'0 0.2
2014-Dec-23 01:21N 01°13' E 103°49'7 7.7
2014-Dec-23 00:27N 01°14' E 103°56'  
Track history (hours):
 
Tides and Currents Weather Stations Pressure Air Temp Water Temp Dewpoint Dewpoint Depression Visibility Wind Speed Wind Dir Waves Ship Positions

Ocean Protector

Last reported at 2014-Dec-24 00:17 UTC. Time now 2016-Dec-02 18:04 UTC.
Position N 01°23' E 104°02'.
Warning: this ship's position is years out of date!

Length 106 m; draft 5.5 m.

Type: Other ship. MMSI: 503630000.

Date/timePositionNaut miles runAvg speedWind from/ knotsBaromVisibWave heightAir tempDewpointWater temp
2014-Dec-24 00:17N 01°23' E 104°02'6 7.3
2014-Dec-23 23:28N 01°17' E 104°04'9 9.8
2014-Dec-23 22:33N 01°16' E 103°55'2 1.8
2014-Dec-23 21:26N 01°16' E 103°53'0 0.0
2014-Dec-23 20:20N 01°16' E 103°53'0 0.0
2014-Dec-23 18:31N 01°16' E 103°53'0 0.0
2014-Dec-23 17:31N 01°16' E 103°53'0 0.0
2014-Dec-23 16:33N 01°16' E 103°53'0 0.0
2014-Dec-23 15:31N 01°16' E 103°53'0 0.0
2014-Dec-23 14:30N 01°16' E 103°53'0 0.0
2014-Dec-23 13:31N 01°16' E 103°53'0 0.0
2014-Dec-23 12:32N 01°16' E 103°53'0 0.0
2014-Dec-23 11:31N 01°16' E 103°53'0 0.1
2014-Dec-23 10:32N 01°16' E 103°53'0 0.0
2014-Dec-23 09:32N 01°16' E 103°53'0 0.0
2014-Dec-23 08:31N 01°16' E 103°53'0 0.0
2014-Dec-23 07:33N 01°16' E 103°53'0 0.0
2014-Dec-23 06:33N 01°16' E 103°53'0 0.1
2014-Dec-23 05:29N 01°16' E 103°53'2 2.5
2014-Dec-23 04:33N 01°14' E 103°54'5 3.9
2014-Dec-23 03:20N 01°13' E 103°49'0 0.0
2014-Dec-23 02:27N 01°13' E 103°49'0 0.2
2014-Dec-23 01:21N 01°13' E 103°49'7 7.7
2014-Dec-23 00:27N 01°14' E 103°56'  

Dump ship's entire track history